DIRECCIÓN GENERAL DE AERONÁUTICA CIVIL
DIRECCIÓN METEOROLÓGICA DE CHILE
INFORMACIÓN METAR Y TAF

FIR PUERTO MONTT

Estación: SCQP
METAR SCQP 011300Z 02014KT 9999 BKN035 OVC100 13/08 Q1007=

TAF SCQP 011041Z 0112/0212 03016KT 5000 -RA BKN025 OVC060 TX14/0118Z TN10/0109Z TEMPO 0118/0204 9999 NSW=

Estación: SCVD
METAR SCVD 011300Z 04007KT 010V070 9999 SCT040 OVC100 12/09 Q1006=

TAF SCVD 011042Z 0112/0124 36015KT 5000 -RA SCT025 OVC060 TN11/0112Z TX13/0118Z TEMPO 0116/0120 36018G28KT=

Estación: SCJO
METAR SCJO 011300Z 01008KT 9999 BKN033 OVC080 12/09 Q1006=

TAF SCJO 011043Z 0112/0124 03012KT 5000 -SHRA SCT025 OVC060 TN11/ 0112Z TX13/0118Z BECMG 0119/0121 35010KT=

Estación: SCTE
METAR SCTE 011300Z 36011KT 8000 -RA OVC050 11/09 Q1006 NOSIG=

TAF SCTE 011044Z 0112/0212 04012KT 5000 -SHRA SCT030 OVC070 TX13/ 0118Z TN10/0209Z TEMPO 0115/0119 9999 NSW BKN030 BECMG 0203/0205 9999 NSW BKN050 BECMG 0208/0210 5000 SHRA SCT015 BKN040=

Estación: SCPQ
METAR SCPQ 011300Z 01012KT 5000 -RA SCT036 OVC050 10/08 Q1005=

TAF SCPQ 011049Z 0112/0124 36010KT 5000 -RA BKN025 OVC060 TN08/0112Z TX12/0118Z BECMG 0116/0118 9999 NSW BKN040 TEMPO 0121/0124 5000 SHRA=

Estación: SCON
METAR SCON 011300Z 03006KT 9999 SCT015 OVC030 11/09 Q1005=

TAF SCON 011045Z 0112/0124 03015KT 5000 -SHRA BKN025 OVC060 TN08/ 0112Z TX12/0118Z TEMPO 0119/0120 9999 NSW=

Estación: SCTN
METAR SCTN NIL=

TAF SCTN NIL=

Estación: SCFT
METAR SCFT 011300Z 00000KT 9999 BKN036 OVC080 06/05 Q1008=

TAF SCFT NIL=

Estación: SCAP
METAR SCAP 011300Z VRB03KT 9999 BKN036 07/04 Q1014=

TAF SCAP NIL=

Estación: SCMK
METAR SCMK 011300Z 03009KT 9999 FEW012 OVC015 11/08 Q105 RESHRA=

TAF SCMK 011046Z 0112/0124 03015KT 5000 -RA BKN017 OVC060 TN08/0112Z TX12/0118Z TEMPO 0115/0119 9999 NSW=

Estación: SCAS
METAR SCAS 011300Z 02006KT CAVOK 07/06 Q1009=

TAF SCAS NIL=

Estación: SCCY
METAR SCCY 011300Z 00000KT 9999 SCT043 OVC080 05/04 Q1009=

TAF SCCY 011047Z 0112/0124 06010KT 9999 SCT035 OVC060 TN04/0112Z TX12 /0118Z BECMG 0119/0121 7000 -SHRA BKN035 OVC060=

Estación: SCBA
SPECI SCBA 011306Z 14006KT 9999 SCT080 BKN120 07/02 Q1010=

TAF SCBA 011048Z 0112/0212 09005KT 9999 BKN100 TX12/0118Z TN04/0209Z TEMPO 0120/0201 8000 -SHRA BKN030 OVC080 BECMG 0202/0204 30010KT CAVOK=

Estación: SCCC
METAR SCCC 011300Z 15003KT 9999 FEW025 BKN080 07/04 Q1012=

TAF SCCC CECF 7687=

Estación: SCHR
METAR SCHR 011300Z OOOOOKT 9999 FEW040 OVC100 05/04 Q1008=

TAF SCHR 011100Z 0112/0200 28005KT 9999 FEW045 TX13/0118Z TN07/0200Z TEMPO 0112/0115 03005KT CAVOK=


Volver